createdAt,value
2019-03-18T00:04:06.639Z,4.10
2019-03-18T00:09:12.674Z,4.10
2019-03-18T00:14:19.281Z,4.00
2019-03-18T00:19:25.795Z,4.00
2019-03-18T00:24:31.840Z,4.00
2019-03-18T00:29:38.722Z,3.80
2019-03-18T00:34:45.643Z,3.90
2019-03-18T00:39:52.755Z,3.90
2019-03-18T00:44:59.962Z,3.90
2019-03-18T00:50:14.950Z,3.80
2019-03-18T00:55:20.979Z,3.80
2019-03-18T01:00:27.804Z,3.70
2019-03-18T01:05:33.875Z,3.70
2019-03-18T01:10:40.834Z,3.60
2019-03-18T01:15:47.628Z,3.50
2019-03-18T01:21:10.677Z,3.50
2019-03-18T01:26:17.774Z,3.50
2019-03-18T01:31:23.799Z,3.40
2019-03-18T01:36:30.476Z,3.30
2019-03-18T01:41:36.478Z,3.30
2019-03-18T01:46:43.224Z,3.40
2019-03-18T01:51:50.011Z,3.40
2019-03-18T01:56:56.811Z,3.40
2019-03-18T02:02:03.730Z,3.30
2019-03-18T02:07:09.835Z,3.20
2019-03-18T02:12:16.687Z,3.20
2019-03-18T02:17:22.688Z,3.20
2019-03-18T02:22:29.339Z,3.20
2019-03-18T02:27:36.250Z,3.20
2019-03-18T02:32:43.033Z,3.20
2019-03-18T02:37:49.607Z,3.20
2019-03-18T02:42:56.101Z,3.00
2019-03-18T02:48:02.940Z,2.90
2019-03-18T02:53:09.481Z,2.90
2019-03-18T02:58:16.496Z,2.80
2019-03-18T03:03:42.374Z,2.80
2019-03-18T03:08:48.895Z,2.60
2019-03-18T03:13:55.361Z,2.50
2019-03-18T03:19:23.641Z,2.40
2019-03-18T03:24:30.784Z,2.40
2019-03-18T03:29:36.808Z,2.40
2019-03-18T03:34:42.849Z,2.30
2019-03-18T03:39:49.380Z,2.30
2019-03-18T03:44:55.977Z,2.40
2019-03-18T03:50:02.441Z,2.10
2019-03-18T03:55:51.237Z,2.10
2019-03-18T04:00:58.358Z,2.00
2019-03-18T04:06:05.247Z,2.00
2019-03-18T04:11:11.292Z,1.80
2019-03-18T04:16:17.811Z,1.70
2019-03-18T04:21:24.689Z,1.70
2019-03-18T04:26:30.711Z,1.70
2019-03-18T04:31:36.723Z,1.70
2019-03-18T04:36:43.610Z,1.70
2019-03-18T04:41:50.523Z,1.70
2019-03-18T04:46:57.431Z,1.70
2019-03-18T04:52:04.419Z,1.60
2019-03-18T04:57:10.491Z,1.60
2019-03-18T05:02:17.064Z,1.50
2019-03-18T05:07:23.149Z,1.40
2019-03-18T05:12:29.633Z,1.50
2019-03-18T05:17:35.672Z,1.50
2019-03-18T05:22:42.715Z,1.60
2019-03-18T05:27:49.755Z,1.50
2019-03-18T05:32:56.543Z,1.50
2019-03-18T05:38:03.398Z,1.60
2019-03-18T05:43:09.671Z,1.60
2019-03-18T05:48:15.719Z,1.60
2019-03-18T05:53:21.732Z,1.70
2019-03-18T05:58:29.492Z,1.70
2019-03-18T06:03:35.503Z,1.70
2019-03-18T06:08:44.232Z,1.80
2019-03-18T06:13:51.287Z,1.80
2019-03-18T06:19:18.455Z,1.90
2019-03-18T06:24:25.223Z,1.80
2019-03-18T06:29:31.125Z,1.90
2019-03-18T06:34:38.920Z,2.10
2019-03-18T06:40:12.681Z,2.30
2019-03-18T06:45:19.587Z,2.70
2019-03-18T06:50:26.391Z,2.90
2019-03-18T06:55:32.323Z,3.20
2019-03-18T07:00:39.037Z,3.30
2019-03-18T07:06:06.815Z,3.40
2019-03-18T07:11:12.855Z,3.60
2019-03-18T07:16:19.581Z,3.90
2019-03-18T07:21:26.369Z,4.10
2019-03-18T07:26:32.303Z,4.30
2019-03-18T07:31:37.943Z,4.40
2019-03-18T07:36:44.627Z,4.50
2019-03-18T07:41:51.033Z,4.60
2019-03-18T07:46:58.503Z,4.90
2019-03-18T07:52:04.918Z,5.00
2019-03-18T07:57:11.856Z,5.30
2019-03-18T08:02:18.889Z,5.40
2019-03-18T08:07:24.856Z,5.40
2019-03-18T08:12:30.808Z,5.50
2019-03-18T08:17:37.597Z,5.40
2019-03-18T08:22:44.788Z,5.50
2019-03-18T08:27:51.486Z,5.90
2019-03-18T08:32:58.271Z,5.60
2019-03-18T08:38:05.131Z,5.30
2019-03-18T08:43:11.051Z,5.20
2019-03-18T08:48:16.945Z,5.40
2019-03-18T08:53:22.862Z,5.30
2019-03-18T08:58:28.820Z,5.30
2019-03-18T09:03:34.746Z,5.10
2019-03-18T09:08:42.481Z,5.10
2019-03-18T09:13:49.490Z,5.20
2019-03-18T09:19:07.712Z,5.20
2019-03-18T09:24:05.570Z,5.30
2019-03-18T09:29:11.496Z,5.30
2019-03-18T09:34:18.551Z,5.30
2019-03-18T09:39:25.013Z,5.60
2019-03-18T09:44:30.949Z,5.60
2019-03-18T09:49:37.691Z,5.70
2019-03-18T09:54:44.353Z,5.70
2019-03-18T09:59:51.170Z,5.70
2019-03-18T10:05:16.386Z,5.80
2019-03-18T10:10:22.878Z,5.80
2019-03-18T10:15:29.807Z,5.70
2019-03-18T10:20:35.721Z,5.70
2019-03-18T10:25:42.514Z,5.80
2019-03-18T10:30:49.357Z,5.60
2019-03-18T10:35:56.153Z,6.10
2019-03-18T10:41:02.852Z,6.20
2019-03-18T10:46:09.696Z,6.20
2019-03-18T10:51:15.686Z,6.00
2019-03-18T10:56:22.470Z,6.10
2019-03-18T11:01:29.334Z,6.40
2019-03-18T11:06:35.295Z,6.90
2019-03-18T11:11:41.214Z,6.70
2019-03-18T11:17:07.988Z,7.40
2019-03-18T11:22:14.743Z,7.00
2019-03-18T11:27:20.709Z,6.50
2019-03-18T11:32:27.704Z,6.70
2019-03-18T11:37:33.629Z,6.60
2019-03-18T11:42:40.586Z,6.30
2019-03-18T11:47:47.027Z,6.30
2019-03-18T11:52:53.412Z,6.30
2019-03-18T11:58:00.568Z,6.20
2019-03-18T12:03:07.214Z,6.60
2019-03-18T12:08:13.179Z,7.30
2019-03-18T12:13:19.115Z,7.00
2019-03-18T12:18:25.056Z,7.40
2019-03-18T12:23:31.214Z,7.80
2019-03-18T12:28:37.169Z,7.60
2019-03-18T12:33:43.117Z,7.10
2019-03-18T12:38:49.847Z,7.20
2019-03-18T12:43:57.444Z,6.90
2019-03-18T12:49:04.336Z,6.90
2019-03-18T12:54:10.996Z,6.90
2019-03-18T12:59:18.842Z,7.30
2019-03-18T13:04:25.621Z,7.40
2019-03-18T13:09:31.588Z,7.50
2019-03-18T13:14:37.600Z,7.60
2019-03-18T13:19:44.404Z,7.50
2019-03-18T13:25:03.977Z,7.90
2019-03-18T13:30:19.203Z,7.80
2019-03-18T13:35:25.175Z,7.20
2019-03-18T13:40:31.528Z,5.30
2019-03-18T13:45:39.321Z,3.30
2019-03-18T13:51:20.137Z,2.50
2019-03-18T13:56:15.722Z,2.70
2019-03-18T14:01:21.670Z,2.80
2019-03-18T14:06:28.217Z,3.70
2019-03-18T14:11:34.148Z,3.50
2019-03-18T14:16:41.179Z,4.10
2019-03-18T14:21:49.604Z,4.50
2019-03-18T14:26:56.695Z,5.00
2019-03-18T14:32:03.473Z,5.20
2019-03-18T14:37:09.640Z,5.60
2019-03-18T14:42:16.551Z,5.70
2019-03-18T14:47:22.450Z,6.00
2019-03-18T14:52:29.216Z,6.30
2019-03-18T14:57:35.093Z,6.30
2019-03-18T15:02:41.860Z,6.20
2019-03-18T15:07:48.654Z,5.90
2019-03-18T15:12:55.117Z,6.10
2019-03-18T15:18:02.019Z,6.40
2019-03-18T15:23:08.728Z,6.50
2019-03-18T15:28:14.634Z,6.80
2019-03-18T15:33:20.578Z,6.60
2019-03-18T15:38:27.393Z,6.50
2019-03-18T15:43:33.297Z,6.60
2019-03-18T15:48:41.337Z,6.70
2019-03-18T15:53:47.830Z,6.80
2019-03-18T15:58:54.909Z,6.40
2019-03-18T16:04:01.925Z,6.10
2019-03-18T16:09:09.441Z,6.10
2019-03-18T16:14:16.237Z,6.00
2019-03-18T16:19:23.108Z,4.80
2019-03-18T16:24:29.641Z,4.40
2019-03-18T16:29:35.611Z,4.20
2019-03-18T16:34:42.578Z,4.30
2019-03-18T16:39:49.413Z,4.10
2019-03-18T16:44:56.233Z,4.00
2019-03-18T16:50:03.438Z,3.70
2019-03-18T16:55:28.635Z,3.50
2019-03-18T17:00:34.561Z,3.50
2019-03-18T17:05:41.448Z,3.20
2019-03-18T17:10:48.226Z,3.20
2019-03-18T17:15:55.177Z,3.20
2019-03-18T17:21:02.015Z,3.20
2019-03-18T17:26:08.834Z,3.10
2019-03-18T17:31:15.826Z,3.00
2019-03-18T17:36:22.600Z,3.10
2019-03-18T17:41:42.728Z,2.90
2019-03-18T17:46:49.302Z,2.80
2019-03-18T17:51:57.687Z,2.90
2019-03-18T17:57:07.520Z,2.80
2019-03-18T18:02:13.342Z,2.70
2019-03-18T18:07:19.680Z,2.60
2019-03-18T18:12:26.503Z,2.60
2019-03-18T18:17:34.606Z,2.60
2019-03-18T18:22:43.209Z,2.40
2019-03-18T18:28:10.330Z,2.50
2019-03-18T18:33:16.229Z,2.30
2019-03-18T18:38:22.200Z,2.30
2019-03-18T18:43:29.968Z,2.30
2019-03-18T18:48:36.721Z,2.30
2019-03-18T18:53:43.547Z,2.20
2019-03-18T18:58:51.495Z,2.30
2019-03-18T19:03:58.315Z,2.30
2019-03-18T19:09:07.604Z,2.40
2019-03-18T19:14:14.467Z,2.50
2019-03-18T19:19:22.362Z,2.60
2019-03-18T19:24:29.061Z,2.80
2019-03-18T19:29:34.993Z,2.80
2019-03-18T19:34:41.880Z,2.80
2019-03-18T19:39:48.935Z,2.80
2019-03-18T19:45:17.003Z,2.90
2019-03-18T19:50:56.672Z,3.00
2019-03-18T19:56:03.588Z,3.00
2019-03-18T20:01:09.842Z,3.20
2019-03-18T20:06:16.963Z,3.20
2019-03-18T20:11:22.866Z,3.20
2019-03-18T20:16:29.438Z,3.30
2019-03-18T20:21:35.360Z,3.20
2019-03-18T20:26:42.921Z,3.30
2019-03-18T20:31:49.710Z,3.20
2019-03-18T20:36:57.798Z,3.30
2019-03-18T20:42:04.932Z,3.40
2019-03-18T20:47:11.002Z,3.30
2019-03-18T20:52:40.072Z,3.40
2019-03-18T20:57:47.024Z,3.40
2019-03-18T21:02:54.051Z,3.30
2019-03-18T21:08:01.004Z,3.40
2019-03-18T21:13:07.880Z,3.30
2019-03-18T21:18:13.763Z,3.30
2019-03-18T21:23:19.682Z,3.20
2019-03-18T21:28:25.586Z,3.20
2019-03-18T21:33:31.478Z,3.10
2019-03-18T21:38:39.471Z,2.90
2019-03-18T21:43:47.301Z,2.90
2019-03-18T21:48:56.621Z,3.00
2019-03-18T21:54:03.432Z,2.90
2019-03-18T21:59:09.717Z,3.00
2019-03-18T22:04:48.724Z,3.00
2019-03-18T22:09:55.239Z,3.00
2019-03-18T22:15:01.755Z,3.10
2019-03-18T22:20:14.887Z,3.20
2019-03-18T22:25:20.828Z,3.30
2019-03-18T22:30:27.620Z,3.00
2019-03-18T22:35:33.549Z,3.10
2019-03-18T22:40:59.857Z,3.00
2019-03-18T22:46:06.728Z,2.90
2019-03-18T22:51:12.609Z,2.90
2019-03-18T22:56:19.399Z,2.80
2019-03-18T23:01:25.296Z,2.80
2019-03-18T23:06:31.196Z,2.80
2019-03-18T23:11:37.091Z,2.80
2019-03-18T23:16:43.765Z,2.90
2019-03-18T23:22:13.098Z,2.90
2019-03-18T23:27:20.009Z,3.00
2019-03-18T23:32:26.457Z,2.80
2019-03-18T23:37:32.374Z,2.70
2019-03-18T23:42:39.152Z,2.90
2019-03-18T23:47:45.919Z,2.70
2019-03-18T23:52:54.862Z,2.80
2019-03-18T23:58:01.688Z,2.70
